createdAt,value
2018-11-28T00:00:17.756Z,30.1
2018-11-28T00:01:08.658Z,30.3
2018-11-28T00:01:59.300Z,30.5
2018-11-28T00:02:49.298Z,30.6
2018-11-28T00:03:39.406Z,30.8
2018-11-28T00:04:29.183Z,30.9
2018-11-28T00:05:18.123Z,31.1
2018-11-28T00:06:08.745Z,31.3
2018-11-28T00:06:58.615Z,31.3
2018-11-28T00:25:11.629Z,28.8
2018-11-28T00:26:07.374Z,28.6
2018-11-28T00:26:50.844Z,28.6
2018-11-28T00:27:41.173Z,28.4
2018-11-28T00:28:30.700Z,28.4
2018-11-28T00:29:21.872Z,28.3
2018-11-28T00:30:11.873Z,28.2
2018-11-28T00:31:01.443Z,28.1
2018-11-28T00:31:51.203Z,27.9
2018-11-28T00:32:41.567Z,27.9
2018-11-28T00:33:31.596Z,26.4
2018-11-28T00:34:21.963Z,25.9
2018-11-28T00:35:12.506Z,26.1
2018-11-28T00:36:02.098Z,26.3
2018-11-28T00:36:51.833Z,26.6
2018-11-28T00:37:42.478Z,27
2018-11-28T00:38:31.103Z,27.3
2018-11-28T00:39:22.283Z,27.7
2018-11-28T00:40:11.765Z,28.1
2018-11-28T00:41:03.070Z,28.4
2018-11-28T00:41:52.465Z,28.7
2018-11-28T00:42:42.538Z,29
2018-11-28T00:43:33.095Z,29.3
2018-11-28T00:44:21.815Z,29.5
2018-11-28T00:45:12.411Z,29.8
2018-11-28T00:46:03.077Z,29.9
2018-11-28T00:46:51.157Z,30.2
2018-11-28T00:47:42.055Z,30.4
2018-11-28T00:48:32.115Z,30.6
2018-11-28T00:49:21.862Z,30.8
2018-11-28T00:50:11.922Z,30.9
2018-11-28T00:51:03.225Z,31.1
2018-11-28T00:51:52.080Z,31.3
2018-11-28T00:52:43.227Z,31.3
2018-11-28T00:53:33.294Z,31.2
2018-11-28T00:54:23.063Z,31
2018-11-28T00:55:12.862Z,30.9
2018-11-28T00:56:04.261Z,30.8
2018-11-28T00:56:53.497Z,30.6
2018-11-28T00:57:42.752Z,30.6
2018-11-28T00:58:33.641Z,30.4
2018-11-28T00:59:24.468Z,30.3
2018-11-28T01:00:13.569Z,30.1
2018-11-28T01:01:03.862Z,30
2018-11-28T01:01:53.863Z,29.9
2018-11-28T01:02:44.529Z,29.8
2018-11-28T01:03:34.264Z,29.7
2018-11-28T01:04:24.631Z,29.6
2018-11-28T01:05:12.994Z,29.4
2018-11-28T01:06:03.636Z,29.4
2018-11-28T01:06:53.646Z,29.3
2018-11-28T01:07:44.581Z,29.2
2018-11-28T01:08:34.348Z,29.1
2018-11-28T01:09:24.409Z,28.9
2018-11-28T01:10:15.071Z,28.9
2018-11-28T01:11:04.498Z,28.8
2018-11-28T01:11:55.101Z,28.6
2018-11-28T01:12:43.303Z,28.6
2018-11-28T01:13:34.463Z,28.4
2018-11-28T01:14:25.037Z,28.3
2018-11-28T01:15:14.905Z,28.3
2018-11-28T01:16:05.205Z,28.1
2018-11-28T01:16:53.635Z,28.1
2018-11-28T01:17:44.036Z,27.9
2018-11-28T01:18:34.887Z,27.3
2018-11-28T01:19:24.410Z,26.1
2018-11-28T01:20:14.155Z,26.1
2018-11-28T01:21:04.202Z,26.2
2018-11-28T01:21:55.099Z,26.5
2018-11-28T01:22:45.119Z,26.9
2018-11-28T01:23:35.463Z,27.2
2018-11-28T01:24:24.122Z,27.5
2018-11-28T01:25:15.893Z,27.9
2018-11-28T01:26:06.635Z,28.3
2018-11-28T01:26:55.787Z,28.6
2018-11-28T01:27:44.961Z,28.9
2018-11-28T01:28:35.772Z,29.1
2018-11-28T01:29:26.382Z,29.4
2018-11-28T01:30:15.362Z,29.6
2018-11-28T01:31:04.634Z,29.9
2018-11-28T01:31:56.082Z,30.1
2018-11-28T01:32:46.986Z,30.3
2018-11-28T01:33:36.154Z,30.5
2018-11-28T01:34:26.232Z,30.6
2018-11-28T01:35:15.426Z,30.8
2018-11-28T01:36:06.079Z,30.9
2018-11-28T01:36:55.601Z,31.1
2018-11-28T01:37:46.396Z,31.3
2018-11-28T01:38:36.519Z,31.3
2018-11-28T01:39:27.071Z,31.2
2018-11-28T01:40:16.332Z,31.1
2018-11-28T01:41:06.449Z,30.9
2018-11-28T01:41:56.771Z,30.8
2018-11-28T01:42:45.214Z,30.7
2018-11-28T01:43:36.633Z,30.6
2018-11-28T01:44:26.349Z,30.4
2018-11-28T01:45:16.137Z,30.3
2018-11-28T01:46:06.161Z,30.2
2018-11-28T01:46:56.299Z,30.1
2018-11-28T01:47:47.702Z,29.9
2018-11-28T01:48:36.410Z,28.4
2018-11-28T01:49:26.693Z,27.8
2018-11-28T01:50:17.074Z,27.4
2018-11-28T01:51:05.729Z,27.1
2018-11-28T01:51:56.588Z,27
2018-11-28T01:52:46.160Z,26.8
2018-11-28T01:53:36.783Z,26.8
2018-11-28T01:54:26.303Z,26.6
2018-11-28T01:55:16.894Z,26.5
2018-11-28T01:56:06.956Z,26.4
2018-11-28T01:56:57.250Z,26.3
2018-11-28T01:57:48.273Z,26.3
2018-11-28T01:58:37.633Z,26.2
2018-11-28T01:59:27.994Z,26.1
2018-11-28T02:00:17.538Z,26
2018-11-28T02:01:08.368Z,25.9
2018-11-28T02:01:58.551Z,25.9
2018-11-28T02:02:48.010Z,25.8
2018-11-28T02:03:37.422Z,25.7
2018-11-28T02:04:28.063Z,25.6
2018-11-28T02:05:18.376Z,25.6
2018-11-28T02:06:08.460Z,25.5
2018-11-28T02:06:58.517Z,25.4
2018-11-28T02:07:49.137Z,25.3
2018-11-28T02:08:38.620Z,25.3
2018-11-28T02:09:28.659Z,25.2
2018-11-28T02:10:18.503Z,25.1
2018-11-28T02:11:07.980Z,25.1
2018-11-28T02:11:58.844Z,25
2018-11-28T02:12:48.634Z,24.9
2018-11-28T02:13:39.222Z,24.9
2018-11-28T02:14:28.817Z,24.8
2018-11-28T02:15:19.410Z,24.7
2018-11-28T02:16:08.596Z,24.6
2018-11-28T02:16:58.391Z,24.6
2018-11-28T02:17:49.457Z,24.5
2018-11-28T02:18:38.849Z,24.4
2018-11-28T02:19:29.096Z,24.4
2018-11-28T02:20:18.749Z,24
2018-11-28T02:21:09.816Z,24.1
2018-11-28T02:21:58.456Z,24.8
2018-11-28T02:22:49.194Z,25.3
2018-11-28T02:23:38.829Z,25.8
2018-11-28T02:24:28.938Z,26.2
2018-11-28T02:25:18.866Z,26.6
2018-11-28T02:26:08.796Z,26.9
2018-11-28T02:26:59.951Z,27.3
2018-11-28T02:27:50.033Z,27.7
2018-11-28T02:28:39.241Z,28
2018-11-28T02:29:30.746Z,28.3
2018-11-28T02:30:20.679Z,28.6
2018-11-28T02:31:09.736Z,28.9
2018-11-28T02:32:00.356Z,29.1
2018-11-28T02:32:50.700Z,29.4
2018-11-28T02:33:40.705Z,29.6
2018-11-28T02:34:30.265Z,29.8
2018-11-28T02:35:20.310Z,29.9
2018-11-28T02:36:10.967Z,30.1
2018-11-28T02:37:00.664Z,30.3
2018-11-28T02:37:51.181Z,30.4
2018-11-28T02:38:40.505Z,30.6
2018-11-28T02:39:30.823Z,30.8
2018-11-28T02:40:21.320Z,30.9
2018-11-28T02:41:11.267Z,31
2018-11-28T02:42:00.497Z,31.1
2018-11-28T02:42:50.977Z,31.3
2018-11-28T02:43:41.727Z,31.3
2018-11-28T02:44:30.980Z,31.1
2018-11-28T02:45:22.221Z,31
2018-11-28T02:46:09.725Z,30.9
2018-11-28T02:47:00.304Z,30.8
2018-11-28T02:47:51.245Z,30.6
2018-11-28T02:48:40.745Z,30.5
2018-11-28T02:49:31.232Z,30.4
2018-11-28T02:50:20.893Z,30.3
2018-11-28T02:51:11.662Z,30.1
2018-11-28T02:52:00.989Z,30
2018-11-28T02:52:51.289Z,28.8
2018-11-28T02:53:41.937Z,27.9
2018-11-28T02:54:32.437Z,27.6
2018-11-28T02:55:22.374Z,27.3
2018-11-28T02:56:12.065Z,27.1
2018-11-28T02:57:00.776Z,26.9
2018-11-28T02:57:51.659Z,26.9
2018-11-28T02:58:41.444Z,26.8
2018-11-28T02:59:32.026Z,26.6
2018-11-28T03:00:22.969Z,26.5
2018-11-28T03:01:12.099Z,26.4
2018-11-28T03:02:01.387Z,26.4
2018-11-28T03:02:52.588Z,26.3
2018-11-28T03:03:42.634Z,25.9
2018-11-28T03:04:32.942Z,25.8
2018-11-28T03:05:22.791Z,25.6
2018-11-28T03:06:13.269Z,25.5
2018-11-28T03:07:03.121Z,25.4
2018-11-28T03:07:53.213Z,25.3
2018-11-28T03:08:42.407Z,25.3
2018-11-28T03:09:32.901Z,25.2
2018-11-28T03:10:22.565Z,25.1
2018-11-28T03:11:12.903Z,25
2018-11-28T03:12:02.586Z,25.1
2018-11-28T03:12:53.118Z,25.5
2018-11-28T03:13:42.998Z,25.8
2018-11-28T03:14:33.608Z,26.2
2018-11-28T03:15:23.117Z,26.6
2018-11-28T03:16:13.708Z,26.9
2018-11-28T03:17:02.951Z,27.3
2018-11-28T03:17:53.981Z,27.6
2018-11-28T03:18:43.710Z,27.9
2018-11-28T03:19:33.697Z,28.1
2018-11-28T03:20:24.395Z,28
2018-11-28T03:22:03.373Z,27.3
2018-11-28T03:22:53.993Z,26.4
2018-11-28T03:23:43.685Z,25.3
2018-11-28T03:24:34.632Z,25
2018-11-28T03:25:23.949Z,25.1
2018-11-28T03:26:13.002Z,25.8
2018-11-28T03:27:04.025Z,26.2
2018-11-28T03:27:54.324Z,26.6
2018-11-28T03:28:44.354Z,26.9
2018-11-28T03:29:34.417Z,27.2
2018-11-28T03:30:25.682Z,27.5
2018-11-28T03:31:14.495Z,27.9
2018-11-28T03:32:05.075Z,28.2
2018-11-28T03:32:55.245Z,28.4
2018-11-28T03:33:45.060Z,28.7
2018-11-28T03:34:34.607Z,28.9
2018-11-28T03:35:26.449Z,29.2
2018-11-28T03:36:14.626Z,29.4
2018-11-28T03:37:04.700Z,29.6
2018-11-28T03:37:54.812Z,29.8
2018-11-28T03:38:44.226Z,29.9
2018-11-28T03:39:35.377Z,30.1
2018-11-28T03:40:25.175Z,30.3
2018-11-28T03:41:14.704Z,30.4
2018-11-28T03:42:04.520Z,30.5
2018-11-28T03:42:55.374Z,30.6
2018-11-28T03:43:44.546Z,30.7
2018-11-28T03:44:35.454Z,30.8
2018-11-28T03:45:25.598Z,30.9
2018-11-28T03:46:15.289Z,31
2018-11-28T03:47:05.093Z,31.1
2018-11-28T03:47:55.971Z,31.2
2018-11-28T03:48:45.513Z,31.3
2018-11-28T03:49:35.808Z,31.2
2018-11-28T03:50:25.580Z,31
2018-11-28T03:51:16.515Z,30.9
2018-11-28T03:52:05.453Z,30.8
2018-11-28T03:52:56.096Z,30.6
2018-11-28T03:53:45.010Z,30.5
2018-11-28T03:54:36.443Z,30.4
2018-11-28T03:55:26.547Z,30.2
2018-11-28T03:56:16.298Z,30.1
2018-11-28T03:57:05.409Z,30
2018-11-28T03:57:56.245Z,29.6
2018-11-28T03:58:46.510Z,28.3
2018-11-28T03:59:35.742Z,27.8
2018-11-28T04:00:27.169Z,27.4
2018-11-28T04:01:16.707Z,27.2
2018-11-28T04:02:06.173Z,27.1
2018-11-28T04:02:56.228Z,26.9
2018-11-28T04:03:46.115Z,26.8
2018-11-28T04:04:37.103Z,26.7
2018-11-28T04:05:27.630Z,26.6
2018-11-28T04:06:17.029Z,26.5
2018-11-28T04:07:07.375Z,26.4
2018-11-28T04:07:57.146Z,26.3
2018-11-28T04:08:46.842Z,26.1
2018-11-28T04:09:37.262Z,25.9
2018-11-28T04:10:27.890Z,25.7
2018-11-28T04:11:17.417Z,25.6
2018-11-28T04:12:07.957Z,25.4
2018-11-28T04:12:58.086Z,25.4
2018-11-28T04:13:48.087Z,25.3
2018-11-28T04:14:37.611Z,25.2
2018-11-28T04:15:28.222Z,25.1
2018-11-28T04:16:16.889Z,25
2018-11-28T04:17:07.537Z,25.1
2018-11-28T04:17:57.587Z,25.6
2018-11-28T04:18:48.104Z,25.9
2018-11-28T04:19:38.231Z,26.3
2018-11-28T04:20:27.276Z,26.7
2018-11-28T04:21:16.984Z,26.9
2018-11-28T04:22:07.921Z,27.3
2018-11-28T04:22:57.926Z,27.6
2018-11-28T04:23:47.254Z,27.9
2018-11-28T04:24:38.076Z,28.2
2018-11-28T04:25:28.861Z,28.4
2018-11-28T04:26:17.900Z,28.7
2018-11-28T04:27:07.969Z,28.9
2018-11-28T04:27:57.697Z,29.1
2018-11-28T04:28:47.736Z,29.3
2018-11-28T04:29:38.679Z,29.4
2018-11-28T04:30:28.890Z,29.6
2018-11-28T04:31:19.331Z,29.8
2018-11-28T04:32:09.207Z,29.9
2018-11-28T04:32:57.839Z,30
2018-11-28T04:33:49.007Z,30.1
2018-11-28T04:34:39.073Z,30.3
2018-11-28T04:35:29.224Z,30.3
2018-11-28T04:36:19.203Z,30.4
2018-11-28T04:54:27.014Z,29.9
2018-11-28T04:55:17.767Z,29.1
2018-11-28T04:56:07.272Z,28.1
2018-11-28T04:56:57.752Z,27.6
2018-11-28T04:57:47.614Z,27.3
2018-11-28T04:58:36.774Z,27.1
2018-11-28T04:59:27.466Z,27
2018-11-28T05:00:17.013Z,26.9
2018-11-28T05:01:07.261Z,26.8
2018-11-28T05:01:57.942Z,26.6
2018-11-28T05:02:47.469Z,26.6
2018-11-28T05:03:38.764Z,26.4
2018-11-28T05:04:27.244Z,26.3
2018-11-28T05:05:18.670Z,26.3
2018-11-28T05:06:07.335Z,26
2018-11-28T05:06:58.261Z,25.8
2018-11-28T05:07:48.286Z,25.6
2018-11-28T05:08:37.780Z,25.5
2018-11-28T05:09:27.369Z,25.4
2018-11-28T05:10:18.405Z,25.3
2018-11-28T05:11:08.488Z,25.3
2018-11-28T05:11:57.798Z,25.1
2018-11-28T05:12:48.974Z,25
2018-11-28T05:13:37.896Z,25.1
2018-11-28T05:14:28.533Z,25.4
2018-11-28T05:15:18.490Z,25.8
2018-11-28T05:16:08.568Z,26.2
2018-11-28T05:16:58.310Z,26.6
2018-11-28T05:17:48.965Z,26.9
2018-11-28T05:18:38.457Z,27.2
2018-11-28T05:19:28.495Z,27.5
2018-11-28T05:20:18.345Z,27.8
2018-11-28T05:21:08.878Z,28.1
2018-11-28T05:21:59.263Z,28.3
2018-11-28T05:22:49.066Z,28.5
2018-11-28T05:23:37.952Z,28.7
2018-11-28T05:24:29.122Z,28.8
2018-11-28T05:25:18.636Z,29
2018-11-28T05:26:08.684Z,29.2
2018-11-28T05:26:58.470Z,29.3
2018-11-28T05:27:49.745Z,29.4
2018-11-28T05:28:39.707Z,29.6
2018-11-28T05:29:29.479Z,29.6
2018-11-28T05:30:19.569Z,29.8
2018-11-28T05:31:09.307Z,29.9
2018-11-28T05:31:59.722Z,29.9
2018-11-28T05:32:48.632Z,30
2018-11-28T05:33:39.837Z,30.1
2018-11-28T05:34:28.738Z,30.2
2018-11-28T05:35:19.083Z,30.3
2018-11-28T05:36:08.870Z,30.3
2018-11-28T05:36:59.512Z,30.3
2018-11-28T05:37:49.554Z,30.4
2018-11-28T05:38:39.863Z,30.4
2018-11-28T05:39:30.214Z,30.4
2018-11-28T05:40:20.044Z,30.4
2018-11-28T05:41:10.578Z,30.4
2018-11-28T05:42:00.969Z,30.5
2018-11-28T05:42:50.437Z,30.5
2018-11-28T05:43:40.535Z,30.5
2018-11-28T05:44:30.591Z,30.5
2018-11-28T05:45:20.299Z,30.5
2018-11-28T05:46:10.473Z,30.5
2018-11-28T05:47:01.249Z,30.5
2018-11-28T05:47:51.196Z,30.5
2018-11-28T05:48:40.095Z,30.5
2018-11-28T05:49:31.031Z,30.4
2018-11-28T05:50:21.313Z,30.4
2018-11-28T05:51:11.070Z,30.4
2018-11-28T05:52:00.844Z,30.4
2018-11-28T05:52:51.194Z,30.4
2018-11-28T05:53:40.450Z,30.4
2018-11-28T05:54:31.599Z,30.4
2018-11-28T05:55:21.108Z,30.4
2018-11-28T05:56:10.840Z,30.4
2018-11-28T05:57:00.053Z,30.3
2018-11-28T05:57:53.114Z,30.3
2018-11-28T05:58:40.994Z,30.3
2018-11-28T05:59:35.239Z,30.3
2018-11-28T06:00:21.445Z,30.3
2018-11-28T06:01:10.882Z,30.3
2018-11-28T06:02:01.502Z,30.3
2018-11-28T06:02:51.838Z,30.3
2018-11-28T06:03:41.359Z,30.2
2018-11-28T06:04:31.975Z,29.9
2018-11-28T06:05:22.024Z,29.6
2018-11-28T06:06:12.359Z,29.1
2018-11-28T06:07:02.142Z,28.4
2018-11-28T06:07:51.094Z,27.7
2018-11-28T06:08:41.482Z,27.1
2018-11-28T06:09:31.200Z,26.3
2018-11-28T06:10:22.601Z,25.4
2018-11-28T06:11:12.444Z,24.4
2018-11-28T06:12:03.345Z,23.9
2018-11-28T06:12:52.469Z,23.9
2018-11-28T06:13:42.607Z,24.4
2018-11-28T06:14:32.954Z,25.4
2018-11-28T06:15:22.179Z,26.1
2018-11-28T06:16:12.221Z,26.6
2018-11-28T06:17:03.354Z,27
2018-11-28T06:17:52.984Z,27.3
2018-11-28T06:18:44.374Z,27.7
2018-11-28T06:19:33.289Z,28.1
2018-11-28T06:20:22.586Z,28.4
2018-11-28T06:21:13.134Z,28.7
2018-11-28T06:22:03.736Z,29
2018-11-28T06:22:53.601Z,29.3
2018-11-28T06:23:43.888Z,29.5
2018-11-28T06:24:32.529Z,29.7
2018-11-28T06:25:25.479Z,29.9
2018-11-28T06:26:13.803Z,30.1
2018-11-28T06:27:03.343Z,30.3
2018-11-28T06:27:53.164Z,30.4
2018-11-28T06:28:43.963Z,30.6
2018-11-28T06:29:33.713Z,30.8
2018-11-28T06:30:23.520Z,30.9
2018-11-28T06:31:13.031Z,31
2018-11-28T06:32:03.186Z,31.1
2018-11-28T06:32:59.567Z,31.3
2018-11-28T06:33:44.832Z,31.1
2018-11-28T06:34:34.090Z,31.1
2018-11-28T06:35:24.413Z,30.9
2018-11-28T06:36:13.390Z,30.8
2018-11-28T06:37:04.237Z,30.7
2018-11-28T06:37:54.554Z,30.5
2018-11-28T06:38:44.055Z,30.4
2018-11-28T06:39:34.698Z,30.3
2018-11-28T06:40:30.615Z,30.1
2018-11-28T06:41:13.795Z,30
2018-11-28T06:42:04.658Z,29.9
2018-11-28T06:42:54.497Z,28.6
2018-11-28T06:43:44.980Z,28.6
2018-11-28T06:44:34.517Z,28.4
2018-11-28T06:45:24.589Z,28.5
2018-11-28T06:46:12.947Z,28.7
2018-11-28T06:47:05.223Z,28.9
2018-11-28T06:47:55.570Z,29.1
2018-11-28T06:48:45.884Z,29.3
2018-11-28T06:49:33.772Z,29.6
2018-11-28T06:50:25.377Z,29.8
2018-11-28T06:51:15.769Z,29.9
2018-11-28T06:52:05.290Z,30.1
2018-11-28T06:52:54.592Z,30.3
2018-11-28T06:53:47.204Z,30.4
2018-11-28T06:54:34.668Z,30.6
2018-11-28T06:55:25.609Z,30.7
2018-11-28T06:56:15.313Z,30.8
2018-11-28T06:57:05.362Z,30.9
2018-11-28T06:57:55.464Z,31.1
2018-11-28T06:58:46.291Z,31.1
2018-11-28T06:59:35.813Z,31.3
2018-11-28T07:00:26.474Z,31.2
2018-11-28T07:01:16.216Z,31.1
2018-11-28T07:02:05.713Z,30.9
2018-11-28T07:02:55.434Z,30.8
2018-11-28T07:03:45.816Z,30.7
2018-11-28T07:04:36.207Z,30.6
2018-11-28T07:05:25.468Z,30.4
2018-11-28T07:06:16.565Z,30.3
2018-11-28T07:07:06.348Z,30.1
2018-11-28T07:07:55.949Z,30.1
2018-11-28T07:08:46.820Z,29.9
2018-11-28T07:09:37.081Z,28.8
2018-11-28T07:10:25.561Z,28.1
2018-11-28T07:11:16.928Z,27.7
2018-11-28T07:12:05.870Z,27.4
2018-11-28T07:12:56.810Z,27.3
2018-11-28T07:13:46.335Z,27.1
2018-11-28T07:14:36.905Z,26.9
2018-11-28T07:15:26.690Z,26.9
2018-11-28T07:16:15.876Z,26.8
2018-11-28T07:17:06.025Z,26.6
2018-11-28T07:17:57.207Z,26.6
2018-11-28T07:18:46.862Z,26.4
2018-11-28T07:19:36.630Z,26.4
2018-11-28T07:20:26.841Z,26.1
2018-11-28T07:21:16.849Z,25.9
2018-11-28T07:22:08.139Z,25.8
2018-11-28T07:22:56.507Z,25.6
2018-11-28T07:23:47.152Z,25.5
2018-11-28T07:24:37.979Z,25.4
2018-11-28T07:25:27.757Z,25.3
2018-11-28T07:26:16.994Z,25.2
2018-11-28T07:27:06.691Z,25.1
2018-11-28T07:27:57.346Z,25
2018-11-28T07:28:47.201Z,24.9
2018-11-28T07:29:37.149Z,24.8
2018-11-28T07:30:27.911Z,24.7
2018-11-28T07:31:17.041Z,24.6
2018-11-28T07:32:07.089Z,24.5
2018-11-28T07:32:57.971Z,24.4
2018-11-28T07:33:46.693Z,24.3
2018-11-28T07:34:38.019Z,24.2
2018-11-28T07:35:28.648Z,24.1
2018-11-28T07:36:17.867Z,24
2018-11-28T07:37:08.178Z,23.9
2018-11-28T07:37:58.269Z,23.9
2018-11-28T07:38:48.033Z,23.8
2018-11-28T07:39:38.278Z,23.7
2018-11-28T07:40:29.148Z,23.6
2018-11-28T07:41:17.893Z,23.7
2018-11-28T07:42:08.360Z,23.6
2018-11-28T07:42:58.580Z,23.6
2018-11-28T07:43:49.202Z,23.5
2018-11-28T07:44:38.690Z,23.4
2018-11-28T07:45:29.135Z,23.4
2018-11-28T07:46:18.588Z,23.3
2018-11-28T07:47:09.185Z,23.2
2018-11-28T07:47:58.730Z,23.1
2018-11-28T07:48:48.748Z,23.1
2018-11-28T07:49:39.160Z,23
2018-11-28T07:50:29.507Z,22.9
2018-11-28T07:51:19.510Z,22.9
2018-11-28T07:52:09.520Z,23
2018-11-28T07:52:58.275Z,22.9
2018-11-28T07:53:48.612Z,22.9
2018-11-28T07:54:39.457Z,22.8
2018-11-28T07:55:29.517Z,22.8
2018-11-28T07:56:19.590Z,22.7
2018-11-28T07:57:08.578Z,22.6
2018-11-28T07:57:59.644Z,22.6
2018-11-28T07:58:49.714Z,22.5
2018-11-28T07:59:39.722Z,22.4
2018-11-28T08:00:29.362Z,22.4
2018-11-28T08:01:20.494Z,22.2
2018-11-28T08:02:10.027Z,22.4
2018-11-28T08:03:00.831Z,22.4
2018-11-28T08:03:50.460Z,22.4
2018-11-28T08:04:40.882Z,22.4
2018-11-28T08:05:31.351Z,22.4
2018-11-28T08:06:20.197Z,22.3
2018-11-28T08:07:10.287Z,22.3
2018-11-28T08:07:59.588Z,22.1
2018-11-28T08:08:49.626Z,22.1
2018-11-28T08:09:41.027Z,22
2018-11-28T08:10:31.301Z,21.9
2018-11-28T08:11:21.414Z,21.9
2018-11-28T08:12:12.354Z,21.9
2018-11-28T08:13:00.491Z,22.1
2018-11-28T08:13:50.786Z,22.1
2018-11-28T08:14:42.013Z,22
2018-11-28T08:15:31.079Z,22
2018-11-28T08:16:21.456Z,21.9
2018-11-28T08:17:10.507Z,21.9
2018-11-28T08:18:01.136Z,21.8
2018-11-28T08:18:50.028Z,21.8
2018-11-28T08:19:41.213Z,21.7
2018-11-28T08:20:31.818Z,21.6
2018-11-28T08:21:20.951Z,21.6
2018-11-28T08:22:11.363Z,21.4
2018-11-28T08:23:02.013Z,21.7
2018-11-28T08:23:50.951Z,21.8
2018-11-28T08:24:42.958Z,21.7
2018-11-28T08:25:37.576Z,21.7
2018-11-28T08:26:22.186Z,21.6
2018-11-28T08:27:12.020Z,21.6
2018-11-28T08:28:02.511Z,21.6
2018-11-28T08:28:52.127Z,21.5
2018-11-28T08:29:41.609Z,21.4
2018-11-28T08:30:31.553Z,21.4
2018-11-28T08:31:22.071Z,21.3
2018-11-28T08:32:12.596Z,21.2
2018-11-28T08:33:01.968Z,21.2
2018-11-28T08:34:41.801Z,21.1
2018-11-28T08:35:31.711Z,21
2018-11-28T08:36:22.196Z,20.9
2018-11-28T08:37:11.637Z,20.9
2018-11-28T08:38:01.726Z,20.8
2018-11-28T08:38:52.130Z,20.8
2018-11-28T08:39:41.258Z,20.7
2018-11-28T08:40:32.725Z,20.6
2018-11-28T08:41:21.468Z,20.6
2018-11-28T08:42:12.460Z,20.6
2018-11-28T08:43:02.919Z,20.5
2018-11-28T08:43:52.637Z,20.4
2018-11-28T08:44:42.945Z,20.4
2018-11-28T08:45:32.795Z,20.4
2018-11-28T08:46:24.092Z,20.3
2018-11-28T08:47:13.134Z,20.3
2018-11-28T08:48:03.744Z,20.2
2018-11-28T08:48:52.660Z,20.1
2018-11-28T08:49:43.305Z,20.1
2018-11-28T08:50:34.424Z,20
2018-11-28T08:51:23.149Z,20
2018-11-28T08:52:13.996Z,19.9
2018-11-28T09:08:51.953Z,19.1
2018-11-28T09:09:42.184Z,19
2018-11-28T09:10:32.320Z,18.9
2018-11-28T09:11:22.823Z,18.9
2018-11-28T09:12:11.542Z,18.9
2018-11-28T09:13:08.458Z,18.8
2018-11-28T09:13:51.953Z,18.8
2018-11-28T09:14:42.783Z,18.8
2018-11-28T09:17:17.739Z,18.6
2018-11-28T09:18:02.139Z,18.6
2018-11-28T09:18:53.114Z,18.6
2018-11-28T09:19:42.607Z,18.5
2018-11-28T09:20:32.340Z,18.5
2018-11-28T09:21:23.330Z,18.4
2018-11-28T09:22:12.795Z,18.4
2018-11-28T09:23:02.538Z,18.4
2018-11-28T09:23:52.878Z,18.4
2018-11-28T09:24:43.194Z,18.3
2018-11-28T09:25:32.722Z,18.3
2018-11-28T09:26:23.134Z,18.3
2018-11-28T09:27:12.555Z,18.2
2018-11-28T09:28:03.541Z,18.2
2018-11-28T09:28:53.450Z,18.1
2018-11-28T09:29:43.259Z,18.1
2018-11-28T09:30:33.112Z,18.1
2018-11-28T09:31:23.950Z,18
2018-11-28T09:32:13.482Z,18
2018-11-28T09:33:04.087Z,17.9
2018-11-28T09:33:53.542Z,17.9
2018-11-28T09:34:44.106Z,17.9
2018-11-28T09:35:33.119Z,17.8
2018-11-28T09:36:23.734Z,17.8
2018-11-28T09:37:14.019Z,17.8
2018-11-28T09:38:03.886Z,17.8
2018-11-28T09:38:53.614Z,17.8
2018-11-28T09:39:44.811Z,17.7
2018-11-28T09:40:33.794Z,17.6
2018-11-28T09:41:24.062Z,17.6
2018-11-28T09:42:15.236Z,17.6
2018-11-28T09:43:04.511Z,17.5
2018-11-28T09:43:54.884Z,17.5
2018-11-28T09:44:44.347Z,17.5
2018-11-28T09:45:34.962Z,17.4
2018-11-28T09:46:24.416Z,17.4
2018-11-28T09:47:14.248Z,17.4
2018-11-28T09:48:04.576Z,17.4
2018-11-28T09:48:54.860Z,17.4
2018-11-28T09:49:44.683Z,17.3
2018-11-28T09:50:35.302Z,17.3
2018-11-28T09:51:25.071Z,17.3
2018-11-28T09:52:15.358Z,17.3
2018-11-28T09:53:04.346Z,17.3
2018-11-28T09:53:55.003Z,17.2
2018-11-28T09:54:45.308Z,17.1
2018-11-28T09:55:35.111Z,17.1
2018-11-28T09:56:25.158Z,17.1
2018-11-28T09:57:14.638Z,17.1
2018-11-28T09:58:05.658Z,17.1
2018-11-28T10:00:35.418Z,16.9
2018-11-28T10:01:24.921Z,16.9
2018-11-28T10:02:16.212Z,16.9
2018-11-28T10:03:05.950Z,16.9
2018-11-28T10:03:55.918Z,16.9
2018-11-28T10:04:45.415Z,16.8
2018-11-28T10:05:36.768Z,16.8
2018-11-28T10:06:25.908Z,16.8
2018-11-28T10:07:16.660Z,16.8
2018-11-28T10:08:06.987Z,16.8
2018-11-28T10:08:56.437Z,16.8
2018-11-28T10:09:46.597Z,16.7
2018-11-28T10:10:37.072Z,16.7
2018-11-28T10:11:26.197Z,16.6
2018-11-28T10:12:16.007Z,16.6
2018-11-28T10:13:06.360Z,16.6
2018-11-28T10:13:55.807Z,16.6
2018-11-28T10:14:45.610Z,16.6
2018-11-28T10:15:42.554Z,16.6
2018-11-28T10:16:26.840Z,16.6
2018-11-28T10:17:16.067Z,16.5
2018-11-28T10:18:07.262Z,16.5
2018-11-28T10:18:56.257Z,16.5
2018-11-28T10:19:47.360Z,16.4
2018-11-28T10:20:36.289Z,16.4
2018-11-28T10:21:27.504Z,16.4
2018-11-28T10:22:17.232Z,16.4
2018-11-28T10:23:05.940Z,16.4
2018-11-28T10:23:56.332Z,16.3
2018-11-28T10:24:47.447Z,16.3
2018-11-28T10:25:37.267Z,16.3
2018-11-28T10:26:27.024Z,16.3
2018-11-28T10:27:17.859Z,16.3
2018-11-28T10:28:07.434Z,16.2
2018-11-28T10:28:57.434Z,16.2
2018-11-28T10:29:47.192Z,16.2
2018-11-28T10:30:38.446Z,16.1
2018-11-28T10:31:27.397Z,16.1
2018-11-28T10:32:18.054Z,16.1
2018-11-28T10:33:08.279Z,16.1
2018-11-28T10:33:58.579Z,16.1
2018-11-28T10:34:48.114Z,16.1
2018-11-28T10:35:37.077Z,16.1
2018-11-28T10:36:28.584Z,16.1
2018-11-28T10:37:17.731Z,16
2018-11-28T10:38:08.913Z,15.9
2018-11-28T10:38:58.613Z,15.9
2018-11-28T10:39:47.919Z,15.9
2018-11-28T10:40:38.914Z,15.9
2018-11-28T10:41:28.104Z,15.9
2018-11-28T10:42:18.911Z,15.9
2018-11-28T10:43:09.064Z,15.9
2018-11-28T10:43:58.744Z,15.9
2018-11-28T10:44:48.616Z,15.8
2018-11-28T10:45:38.381Z,15.8
2018-11-28T10:46:30.316Z,15.8
2018-11-28T10:47:19.268Z,15.8
2018-11-28T10:48:08.607Z,15.8
2018-11-28T10:48:59.396Z,15.8
2018-11-28T10:49:49.161Z,15.8
2018-11-28T10:50:39.734Z,15.7
2018-11-28T10:51:29.444Z,15.7
2018-11-28T10:52:18.813Z,15.7
2018-11-28T10:53:08.934Z,15.6
2018-11-28T10:54:01.118Z,15.6
2018-11-28T10:54:49.041Z,15.6
2018-11-28T10:55:39.586Z,15.6
2018-11-28T10:56:29.673Z,15.6
2018-11-28T10:57:19.736Z,15.6
2018-11-28T10:58:09.527Z,15.6
2018-11-28T10:58:59.033Z,15.6
2018-11-28T10:59:50.201Z,15.5
2018-11-28T11:00:39.804Z,15.5
2018-11-28T11:01:31.215Z,15.5
2018-11-28T11:02:20.541Z,15.5
2018-11-28T11:03:09.112Z,15.5
2018-11-28T11:04:00.693Z,15.4
2018-11-28T11:04:51.608Z,15.4
2018-11-28T11:05:39.893Z,15.4
2018-11-28T11:06:30.233Z,15.4
2018-11-28T11:07:19.998Z,15.4
2018-11-28T11:08:10.449Z,15.4
2018-11-28T11:09:00.897Z,15.4
2018-11-28T11:09:51.020Z,15.4
2018-11-28T11:10:40.362Z,15.4
2018-11-28T11:11:30.733Z,15.3
2018-11-28T11:12:21.313Z,15.3
2018-11-28T11:13:09.977Z,15.3
2018-11-28T11:14:00.623Z,15.3
2018-11-28T11:14:51.202Z,15.3
2018-11-28T11:15:41.056Z,15.3
2018-11-28T11:16:30.870Z,15.3
2018-11-28T11:17:20.579Z,15.3
2018-11-28T11:18:16.949Z,15.3
2018-11-28T11:19:00.401Z,15.2
2018-11-28T11:19:51.849Z,15.2
2018-11-28T11:20:41.566Z,15.2
2018-11-28T11:21:31.117Z,15.2
2018-11-28T11:22:22.038Z,15.2
2018-11-28T11:23:13.434Z,15.2
2018-11-28T11:24:01.656Z,15.1
2018-11-28T11:24:51.743Z,15.1
2018-11-28T11:25:41.688Z,15.1
2018-11-28T11:26:31.063Z,15.1
2018-11-28T11:27:21.783Z,15.1
2018-11-28T11:28:11.389Z,15.1
2018-11-28T11:29:02.051Z,15.1
2018-11-28T11:29:51.873Z,15.1
2018-11-28T11:30:41.501Z,15.1
2018-11-28T11:31:31.632Z,15
2018-11-28T11:32:21.682Z,15
2018-11-28T11:33:10.685Z,15
2018-11-28T11:34:02.241Z,15
2018-11-28T11:34:51.420Z,15
2018-11-28T11:35:41.457Z,15
2018-11-28T11:36:31.307Z,14.9
2018-11-28T11:37:21.316Z,14.9
2018-11-28T11:38:11.131Z,14.9
2018-11-28T11:39:01.662Z,14.9
2018-11-28T11:39:51.850Z,14.9
2018-11-28T11:40:42.045Z,14.9
2018-11-28T11:41:31.130Z,14.9
2018-11-28T11:42:22.418Z,14.9
2018-11-28T11:43:11.162Z,14.9
2018-11-28T11:44:01.456Z,14.9
2018-11-28T11:44:52.845Z,14.9
2018-11-28T11:45:43.838Z,14.9
2018-11-28T11:46:31.690Z,14.8
2018-11-28T11:47:23.502Z,14.8
2018-11-28T11:48:13.519Z,14.8
2018-11-28T11:49:04.607Z,14.8
2018-11-28T11:49:53.415Z,14.8
2018-11-28T11:50:43.499Z,14.8
2018-11-28T11:51:33.307Z,14.8
2018-11-28T11:52:24.860Z,14.8
2018-11-28T11:53:14.507Z,14.8
2018-11-28T11:54:03.695Z,14.8
2018-11-28T11:54:52.976Z,14.8
2018-11-28T11:55:44.150Z,14.8
2018-11-28T11:56:34.231Z,14.7
2018-11-28T11:57:23.108Z,14.8
2018-11-28T11:58:13.571Z,14.7
2018-11-28T11:59:04.370Z,14.7
2018-11-28T11:59:54.124Z,14.7
2018-11-28T12:00:44.411Z,14.7
2018-11-28T12:01:33.959Z,14.7
2018-11-28T12:02:24.011Z,14.7
2018-11-28T12:03:13.618Z,14.7
2018-11-28T12:04:05.031Z,14.6